Terminal Aerodrome Forecast
Issued by NWS

Home | Current Version | Previous Version | Text Only | Print | Product List | Glossary On
Versions: 1 2 3 4 5 6 7 8 9 10 11 12 13 14 15 16 17 18 19 20 21 22 23 24 25 26 27 28 29 30 31 32 33 34 35 36 37 38 39 40 41 42 43 44 45 46 47 48 49 50
000
FTUS43 KLOT 301732 CCA
TAFGYY
TAF COR
KGYY 301732Z 3018/3118 VRB05KT P6SM VCSH SCT010 BKN025 BKN200
     FM302200 VRB06KT P6SM VCTS BKN030CB
     FM310100 28005KT P6SM SCT040 BKN180
     FM310800 33006KT P6SM SCT040 BKN180
     FM311200 36012KT P6SM BKN010
     FM311500 01013G19KT P6SM BKN025 BKN250=

USA.gov is the U.S. government's official web portal to all federal, state and local government web resources and services.